Time;durP1;ratioP1;P1;durP2;ratioP2;P2;SDS_P1;SDS_P2;PMS_P1;PMS_P2;Temp;Humidity;BMP_temperature;BMP_pressure;BME280_temperature;BME280_humidity;BME280_pressure;Samples;Min_cycle;Max_cycle;Signal;HPM_P1;HPM_P2
2023/12/16 00:00:07;;;;;;;;;;;15.70;82.30;;;;;;5052725;28;19909;-71
2023/12/16 00:02:32;;;;;;;;;;;16.00;81.90;;;;;;5052896;28;19909;-74
2023/12/16 00:04:58;;;;;;;;;;;16.00;82.30;;;;;;5052687;28;19927;-71
2023/12/16 00:07:23;;;;;;;;;;;16.00;82.50;;;;;;5052812;28;19912;-72
2023/12/16 00:09:49;;;;;;;;;;;16.00;82.40;;;;;;5052782;28;19916;-72
2023/12/16 00:12:14;;;;;;;;;;;16.00;82.20;;;;;;5052689;28;19941;-72
2023/12/16 00:14:40;;;;;;;;;;;16.00;82.40;;;;;;5052729;28;19912;-72
2023/12/16 00:17:05;;;;;;;;;;;16.00;82.40;;;;;;5052638;28;19908;-72
2023/12/16 00:19:31;;;;;;;;;;;16.00;82.50;;;;;;5052615;28;19909;-72
2023/12/16 00:21:56;;;;;;;;;;;16.00;82.80;;;;;;5052502;28;20019;-72
2023/12/16 00:24:22;;;;;;;;;;;16.00;82.80;;;;;;5053350;28;19932;-72
2023/12/16 00:26:47;;;;;;;;;;;16.00;82.70;;;;;;5052559;28;19916;-72
2023/12/16 00:29:13;;;;;;;;;;;16.00;82.90;;;;;;5052458;28;20489;-72
2023/12/16 00:31:38;;;;;;;;;;;16.00;83.00;;;;;;5052501;28;19915;-72
2023/12/16 00:34:04;;;;;;;;;;;16.10;82.90;;;;;;5052355;28;19916;-74
2023/12/16 00:36:29;;;;;;;;;;;16.00;83.00;;;;;;5052453;28;19913;-72
2023/12/16 00:38:55;;;;;;;;;;;16.00;82.90;;;;;;5052485;28;19999;-73
2023/12/16 00:41:20;;;;;;;;;;;16.00;82.80;;;;;;5052281;28;20000;-72
2023/12/16 00:43:46;;;;;;;;;;;16.00;83.00;;;;;;5052446;28;19986;-72
2023/12/16 00:46:11;;;;;;;;;;;15.80;82.80;;;;;;5052354;28;20012;-72
2023/12/16 00:48:37;;;;;;;;;;;16.00;82.80;;;;;;5052329;28;19908;-72
2023/12/16 00:51:02;;;;;;;;;;;16.00;83.00;;;;;;5052874;28;19909;-72
2023/12/16 00:53:28;;;;;;;;;;;16.00;82.10;;;;;;5052316;28;19908;-72
2023/12/16 00:55:53;;;;;;;;;;;16.00;82.70;;;;;;5055029;28;20339;-72
2023/12/16 00:58:19;;;;;;;;;;;16.10;82.90;;;;;;5056300;28;20410;-72
2023/12/16 01:00:44;;;;;;;;;;;16.00;82.60;;;;;;5056191;28;19963;-72
2023/12/16 01:03:10;;;;;;;;;;;16.00;82.40;;;;;;5056250;28;19919;-73
2023/12/16 01:05:37;;;;;;;;;;;16.00;82.70;;;;;;5056111;28;19963;-73
2023/12/16 01:08:03;;;;;;;;;;;16.00;82.80;;;;;;5056415;28;19909;-74
2023/12/16 01:10:28;;;;;;;;;;;16.00;81.90;;;;;;5056019;28;19931;-73
2023/12/16 01:12:54;;;;;;;;;;;16.00;82.80;;;;;;5056334;28;19909;-74
2023/12/16 01:15:19;;;;;;;;;;;16.40;82.80;;;;;;5056030;28;19915;-73
2023/12/16 01:17:45;;;;;;;;;;;16.00;82.30;;;;;;5055992;28;19909;-74
2023/12/16 01:20:10;;;;;;;;;;;16.00;82.60;;;;;;5056298;28;20478;-74
2023/12/16 01:22:36;;;;;;;;;;;16.00;82.20;;;;;;5055842;28;19917;-73
2023/12/16 01:25:01;;;;;;;;;;;16.00;82.20;;;;;;5055844;28;19915;-73
2023/12/16 01:27:27;;;;;;;;;;;16.10;82.20;;;;;;5055900;28;19915;-73
2023/12/16 01:29:52;;;;;;;;;;;16.00;82.30;;;;;;5055823;28;19913;-73
2023/12/16 01:32:18;;;;;;;;;;;16.00;82.50;;;;;;5055817;28;19909;-72
2023/12/16 01:34:43;;;;;;;;;;;16.30;82.60;;;;;;5055967;28;19915;-72
2023/12/16 01:37:09;;;;;;;;;;;16.00;82.20;;;;;;5055618;28;19967;-72
2023/12/16 01:39:34;;;;;;;;;;;16.00;82.30;;;;;;5055587;28;19909;-72
2023/12/16 01:42:00;;;;;;;;;;;16.00;81.70;;;;;;5055452;28;19920;-72
2023/12/16 01:44:25;;;;;;;;;;;15.90;82.10;;;;;;5055412;28;19909;-72
2023/12/16 01:46:51;;;;;;;;;;;15.90;82.20;;;;;;5055407;28;19944;-72
2023/12/16 01:49:17;;;;;;;;;;;16.30;82.40;;;;;;5055947;28;19962;-72
2023/12/16 01:51:43;;;;;;;;;;;16.00;82.00;;;;;;5055291;28;19909;-72
2023/12/16 01:54:09;;;;;;;;;;;16.00;82.40;;;;;;5055290;28;19999;-72
2023/12/16 01:56:37;;;;;;;;;;;15.90;82.30;;;;;;5055228;28;19916;-72
2023/12/16 01:59:03;;;;;;;;;;;16.20;82.10;;;;;;5055068;28;19987;-72
2023/12/16 02:01:29;;;;;;;;;;;16.10;81.80;;;;;;5055103;28;19978;-74
2023/12/16 02:03:56;;;;;;;;;;;16.00;82.00;;;;;;5054935;28;20428;-74
2023/12/16 02:06:21;;;;;;;;;;;15.90;82.30;;;;;;5054146;28;19916;-74
2023/12/16 02:08:47;;;;;;;;;;;15.90;82.00;;;;;;5054860;28;20010;-73
2023/12/16 02:11:12;;;;;;;;;;;15.90;81.80;;;;;;5054941;28;19909;-74
2023/12/16 02:13:40;;;;;;;;;;;15.80;82.00;;;;;;5054950;28;19912;-74
2023/12/16 02:16:06;;;;;;;;;;;15.90;82.10;;;;;;5054899;28;19916;-74
2023/12/16 02:18:31;;;;;;;;;;;16.20;80.50;;;;;;5055296;28;19909;-71
2023/12/16 02:20:57;;;;;;;;;;;16.00;82.00;;;;;;5054749;28;19921;-72
2023/12/16 02:23:22;;;;;;;;;;;15.90;81.80;;;;;;5054753;28;19916;-72
2023/12/16 02:25:48;;;;;;;;;;;15.90;81.60;;;;;;5054687;28;19909;-72
2023/12/16 02:28:13;;;;;;;;;;;15.80;81.60;;;;;;5054686;28;19913;-73
2023/12/16 02:30:39;;;;;;;;;;;15.80;81.60;;;;;;5054623;28;19916;-73
2023/12/16 02:33:05;;;;;;;;;;;15.90;81.80;;;;;;5054628;28;19913;-73
2023/12/16 02:35:31;;;;;;;;;;;15.80;81.90;;;;;;5054466;28;19913;-73
2023/12/16 02:37:56;;;;;;;;;;;15.80;81.70;;;;;;5054658;28;19909;-73
2023/12/16 02:40:21;;;;;;;;;;;15.80;81.70;;;;;;5054395;28;19917;-73
2023/12/16 02:42:47;;;;;;;;;;;15.90;81.80;;;;;;5054456;28;20303;-74
2023/12/16 02:45:12;;;;;;;;;;;15.80;81.30;;;;;;5054869;28;19995;-71
2023/12/16 02:47:38;;;;;;;;;;;15.80;82.00;;;;;;5054200;28;19908;-72
2023/12/16 02:50:06;;;;;;;;;;;15.80;81.50;;;;;;5054280;28;19951;-72
2023/12/16 02:52:31;;;;;;;;;;;15.90;80.10;;;;;;5054192;28;19909;-72
2023/12/16 02:54:57;;;;;;;;;;;15.90;81.70;;;;;;5054268;28;19920;-72
2023/12/16 02:57:22;;;;;;;;;;;15.80;81.80;;;;;;5054138;28;19915;-72
2023/12/16 02:59:48;;;;;;;;;;;15.70;81.60;;;;;;5054184;28;19909;-72
2023/12/16 03:02:13;;;;;;;;;;;15.80;81.20;;;;;;5053904;28;20409;-72
2023/12/16 03:04:39;;;;;;;;;;;16.10;82.10;;;;;;5053799;28;19921;-72
2023/12/16 03:07:04;;;;;;;;;;;15.80;81.60;;;;;;5054233;28;20379;-72
2023/12/16 03:09:30;;;;;;;;;;;15.80;81.30;;;;;;5053862;28;19923;-72
2023/12/16 03:11:55;;;;;;;;;;;15.70;81.40;;;;;;5053790;28;19909;-71
2023/12/16 03:14:21;;;;;;;;;;;15.70;81.40;;;;;;5054281;28;20394;-71
2023/12/16 03:16:47;;;;;;;;;;;15.80;81.50;;;;;;5053709;28;19955;-71
2023/12/16 03:19:12;;;;;;;;;;;15.60;81.60;;;;;;5053472;28;19909;-72
2023/12/16 03:21:38;;;;;;;;;;;15.70;81.60;;;;;;5035627;28;19978;-71
2023/12/16 03:24:03;;;;;;;;;;;15.70;81.50;;;;;;5053664;28;19935;-71
2023/12/16 03:26:29;;;;;;;;;;;15.70;80.40;;;;;;5053573;28;19916;-73
2023/12/16 03:28:55;;;;;;;;;;;15.60;81.70;;;;;;5053394;28;19916;-73
2023/12/16 03:31:21;;;;;;;;;;;15.70;81.70;;;;;;5053692;28;19920;-72
2023/12/16 03:33:46;;;;;;;;;;;15.80;81.60;;;;;;5053465;28;19917;-73
2023/12/16 03:36:14;;;;;;;;;;;15.60;76.00;;;;;;5052911;28;20154;-73
2023/12/16 03:38:42;;;;;;;;;;;15.70;81.40;;;;;;5053333;28;19912;-73
2023/12/16 03:41:08;;;;;;;;;;;15.60;76.10;;;;;;5053162;28;20379;-73
2023/12/16 03:43:33;;;;;;;;;;;15.50;81.30;;;;;;5053747;28;19909;-71
2023/12/16 03:45:59;;;;;;;;;;;16.00;81.80;;;;;;5053124;28;20000;-72
2023/12/16 03:48:24;;;;;;;;;;;15.60;81.10;;;;;;5053073;28;19948;-71
2023/12/16 03:50:50;;;;;;;;;;;15.70;81.70;;;;;;5053116;28;20011;-72
2023/12/16 03:53:15;;;;;;;;;;;15.70;81.50;;;;;;5052974;28;20425;-72
2023/12/16 03:55:41;;;;;;;;;;;15.60;81.20;;;;;;5053124;28;19916;-73
2023/12/16 03:58:06;;;;;;;;;;;15.60;81.20;;;;;;5052928;28;19909;-73
2023/12/16 04:00:32;;;;;;;;;;;15.70;81.50;;;;;;5052805;28;19924;-73
2023/12/16 04:02:57;;;;;;;;;;;15.30;80.70;;;;;;5052767;28;19909;-73
2023/12/16 04:05:23;;;;;;;;;;;15.60;81.30;;;;;;5052723;28;19920;-74
2023/12/16 04:07:48;;;;;;;;;;;15.70;81.60;;;;;;5052866;28;20403;-73
2023/12/16 04:10:14;;;;;;;;;;;15.50;81.40;;;;;;5052745;28;19909;-73
2023/12/16 04:12:39;;;;;;;;;;;15.70;81.30;;;;;;5053211;28;19988;-73
2023/12/16 04:15:06;;;;;;;;;;;15.60;81.60;;;;;;5052722;28;19909;-73
2023/12/16 04:17:31;;;;;;;;;;;15.50;79.20;;;;;;5052632;28;20379;-73
2023/12/16 04:19:57;;;;;;;;;;;15.60;81.40;;;;;;5052694;28;19909;-73
2023/12/16 04:22:22;;;;;;;;;;;15.60;81.20;;;;;;5052621;28;19923;-71
2023/12/16 04:24:50;;;;;;;;;;;15.60;81.40;;;;;;5052735;28;19916;-73
2023/12/16 04:27:15;;;;;;;;;;;15.90;81.50;;;;;;5052461;28;20003;-71
2023/12/16 04:29:41;;;;;;;;;;;15.50;81.30;;;;;;5052070;28;19941;-73
2023/12/16 04:32:06;;;;;;;;;;;15.60;81.40;;;;;;5052784;28;19909;-73
2023/12/16 04:34:32;;;;;;;;;;;15.60;81.20;;;;;;5052523;28;19917;-73
2023/12/16 04:36:57;;;;;;;;;;;15.60;81.20;;;;;;5052480;28;19909;-73
2023/12/16 04:39:23;;;;;;;;;;;15.50;80.90;;;;;;5052943;28;19932;-74
2023/12/16 04:41:48;;;;;;;;;;;15.50;81.30;;;;;;5052672;28;20039;-74
2023/12/16 04:44:14;;;;;;;;;;;15.50;81.20;;;;;;5052409;28;19909;-74
2023/12/16 04:46:39;;;;;;;;;;;15.50;81.30;;;;;;5052446;28;20003;-74
2023/12/16 04:49:05;;;;;;;;;;;15.50;81.30;;;;;;5052411;28;19909;-74
2023/12/16 04:51:30;;;;;;;;;;;15.50;81.60;;;;;;5052328;28;19917;-73
2023/12/16 04:53:56;;;;;;;;;;;15.50;81.70;;;;;;5052395;28;19955;-73
2023/12/16 04:56:22;;;;;;;;;;;15.50;81.60;;;;;;5052249;28;19909;-73
2023/12/16 04:58:47;;;;;;;;;;;15.50;81.60;;;;;;5052299;28;20003;-75
2023/12/16 05:01:13;;;;;;;;;;;15.50;82.00;;;;;;5052129;28;20294;-73
2023/12/16 05:03:39;;;;;;;;;;;15.60;81.60;;;;;;5052154;28;20360;-73
2023/12/16 05:06:05;;;;;;;;;;;15.50;82.00;;;;;;5052244;28;20406;-73
2023/12/16 05:08:31;;;;;;;;;;;15.50;81.70;;;;;;5053016;28;19915;-73
2023/12/16 05:10:56;;;;;;;;;;;15.50;81.90;;;;;;5052117;28;20354;-73
2023/12/16 05:13:22;;;;;;;;;;;15.40;81.70;;;;;;5052428;28;19909;-73
2023/12/16 05:15:47;;;;;;;;;;;15.50;81.80;;;;;;5052127;28;19909;-74
2023/12/16 05:18:13;;;;;;;;;;;15.40;81.80;;;;;;5052142;28;20000;-73
2023/12/16 05:20:38;;;;;;;;;;;15.50;81.90;;;;;;5052054;28;20240;-72
2023/12/16 05:23:04;;;;;;;;;;;15.50;81.70;;;;;;5052339;28;19909;-72
2023/12/16 05:25:30;;;;;;;;;;;15.50;82.10;;;;;;5051987;28;20412;-72
2023/12/16 05:27:56;;;;;;;;;;;15.50;82.20;;;;;;5051951;28;19917;-72
2023/12/16 05:30:22;;;;;;;;;;;15.40;81.90;;;;;;5051959;28;19944;-72
2023/12/16 05:32:48;;;;;;;;;;;15.50;82.00;;;;;;5051919;28;20002;-72
2023/12/16 05:35:14;;;;;;;;;;;15.40;82.00;;;;;;5052039;28;20367;-72
2023/12/16 05:37:40;;;;;;;;;;;15.40;81.60;;;;;;5052400;28;19974;-72
2023/12/16 05:40:05;;;;;;;;;;;15.40;81.70;;;;;;5051847;28;19955;-72
2023/12/16 05:42:31;;;;;;;;;;;15.40;80.50;;;;;;5055260;28;19954;-73
2023/12/16 05:44:56;;;;;;;;;;;15.40;81.90;;;;;;5055552;28;20372;-72
2023/12/16 05:47:22;;;;;;;;;;;15.40;81.60;;;;;;5055492;28;19909;-74
2023/12/16 05:49:47;;;;;;;;;;;15.40;82.00;;;;;;5055573;28;19915;-74
2023/12/16 05:52:14;;;;;;;;;;;15.40;82.00;;;;;;5055446;28;20371;-74
2023/12/16 05:54:39;;;;;;;;;;;15.40;82.00;;;;;;5055348;28;20279;-74
2023/12/16 05:57:05;;;;;;;;;;;15.50;82.10;;;;;;5055252;28;20007;-74
2023/12/16 05:59:30;;;;;;;;;;;15.30;82.00;;;;;;5055197;28;19916;-74
2023/12/16 06:01:55;;;;;;;;;;;15.40;81.60;;;;;;5037287;28;20557;-74
2023/12/16 06:04:21;;;;;;;;;;;15.40;81.90;;;;;;5055555;28;19964;-73
2023/12/16 06:06:47;;;;;;;;;;;15.40;82.30;;;;;;5055049;28;19913;-72
2023/12/16 06:09:12;;;;;;;;;;;15.40;82.00;;;;;;5055120;28;19909;-72
2023/12/16 06:11:38;;;;;;;;;;;15.40;82.00;;;;;;5055024;28;19944;-73
2023/12/16 06:14:03;;;;;;;;;;;15.40;82.00;;;;;;5055031;28;19909;-72
2023/12/16 06:16:29;;;;;;;;;;;15.30;82.10;;;;;;5054976;28;19909;-74
2023/12/16 06:18:54;;;;;;;;;;;15.30;82.00;;;;;;5055032;28;19909;-74
2023/12/16 06:21:20;;;;;;;;;;;15.30;81.80;;;;;;5054865;28;19928;-74
2023/12/16 06:23:46;;;;;;;;;;;15.40;81.80;;;;;;5055113;28;19909;-74
2023/12/16 06:26:11;;;;;;;;;;;15.30;82.20;;;;;;5054816;28;20422;-74
2023/12/16 06:28:37;;;;;;;;;;;15.30;81.90;;;;;;5054743;28;19952;-74
2023/12/16 06:31:02;;;;;;;;;;;15.60;82.30;;;;;;5054657;28;19943;-74
2023/12/16 06:33:28;;;;;;;;;;;15.50;82.00;;;;;;5055085;28;19916;-74
2023/12/16 06:35:54;;;;;;;;;;;15.60;82.20;;;;;;5054556;28;19909;-75
2023/12/16 06:38:19;;;;;;;;;;;15.30;82.00;;;;;;5054728;28;19996;-74
2023/12/16 06:40:45;;;;;;;;;;;15.40;82.40;;;;;;5054421;28;20371;-74
2023/12/16 06:43:10;;;;;;;;;;;15.40;82.20;;;;;;5054462;28;19939;-74
2023/12/16 06:45:38;;;;;;;;;;;15.30;82.00;;;;;;5054529;28;19909;-74
2023/12/16 06:48:03;;;;;;;;;;;15.40;82.20;;;;;;5054403;28;19909;-74
2023/12/16 06:50:29;;;;;;;;;;;15.30;81.70;;;;;;5054322;28;20326;-74
2023/12/16 06:52:54;;;;;;;;;;;15.30;82.10;;;;;;5053733;28;19916;-74
2023/12/16 06:55:20;;;;;;;;;;;15.40;82.10;;;;;;5054253;28;19919;-74
2023/12/16 06:57:45;;;;;;;;;;;15.40;82.00;;;;;;5054161;28;20268;-74
2023/12/16 07:00:11;;;;;;;;;;;15.70;82.40;;;;;;5054030;28;19962;-74
2023/12/16 07:23:20;;;;;;;;;;;15.20;81.10;;;;;;4853459;26;20022;-74
2023/12/16 07:25:46;;;;;;;;;;;15.30;81.50;;;;;;5072067;28;19995;-74
2023/12/16 07:28:12;;;;;;;;;;;15.40;82.10;;;;;;5071937;28;20200;-74
2023/12/16 07:30:38;;;;;;;;;;;15.40;80.90;;;;;;5071932;28;19920;-74
2023/12/16 07:33:04;;;;;;;;;;;15.40;81.90;;;;;;5071967;28;20285;-73
2023/12/16 07:35:30;;;;;;;;;;;15.40;81.50;;;;;;5071741;28;19916;-72
2023/12/16 07:37:56;;;;;;;;;;;15.40;81.40;;;;;;5071874;28;20353;-72
2023/12/16 07:40:22;;;;;;;;;;;15.50;81.60;;;;;;5071252;28;19943;-74
2023/12/16 07:42:48;;;;;;;;;;;15.40;82.20;;;;;;5071617;28;19995;-72
2023/12/16 07:45:14;;;;;;;;;;;15.30;81.10;;;;;;5071310;28;20279;-72
2023/12/16 07:47:40;;;;;;;;;;;15.40;81.80;;;;;;5071570;28;19912;-73
2023/12/16 07:50:06;;;;;;;;;;;15.40;81.40;;;;;;5071961;28;20395;-72
2023/12/16 07:52:32;;;;;;;;;;;15.40;80.30;;;;;;5053445;28;19954;-73
2023/12/16 07:54:58;;;;;;;;;;;15.40;82.00;;;;;;5071128;28;19908;-72
2023/12/16 07:57:23;;;;;;;;;;;15.40;81.90;;;;;;5071248;28;19995;-72
2023/12/16 07:59:49;;;;;;;;;;;15.40;81.70;;;;;;5071477;28;20277;-73
2023/12/16 08:02:15;;;;;;;;;;;15.30;80.90;;;;;;5070931;28;19978;-73
2023/12/16 08:04:41;;;;;;;;;;;15.30;81.60;;;;;;5070291;28;19909;-72
2023/12/16 08:07:07;;;;;;;;;;;15.30;81.50;;;;;;5071164;28;20000;-72
2023/12/16 08:09:33;;;;;;;;;;;15.30;81.20;;;;;;5071045;28;20009;-72
2023/12/16 08:11:59;;;;;;;;;;;15.40;81.10;;;;;;5071454;28;20297;-73
2023/12/16 08:14:25;;;;;;;;;;;15.30;81.30;;;;;;5071152;28;19981;-72
2023/12/16 08:16:51;;;;;;;;;;;15.70;81.70;;;;;;5070696;28;19908;-72
2023/12/16 08:19:17;;;;;;;;;;;15.30;81.30;;;;;;5070778;28;19908;-73
2023/12/16 08:21:43;;;;;;;;;;;15.30;81.60;;;;;;5070481;28;19920;-73
2023/12/16 08:24:09;;;;;;;;;;;15.20;81.20;;;;;;5071386;28;19963;-72
2023/12/16 08:26:35;;;;;;;;;;;15.30;81.20;;;;;;5070779;28;19991;-78
2023/12/16 08:29:01;;;;;;;;;;;15.20;80.30;;;;;;5070995;28;19909;-72
2023/12/16 08:31:27;;;;;;;;;;;15.30;82.00;;;;;;5070563;28;19909;-72
2023/12/16 08:33:53;;;;;;;;;;;15.30;81.40;;;;;;5071273;28;19909;-72
2023/12/16 08:36:19;;;;;;;;;;;15.10;81.90;;;;;;5071280;28;19920;-75
2023/12/16 08:38:44;;;;;;;;;;;15.30;82.40;;;;;;5071314;28;20308;-74
2023/12/16 08:41:12;;;;;;;;;;;15.20;82.20;;;;;;5071431;28;20316;-75
2023/12/16 08:43:38;;;;;;;;;;;15.20;82.00;;;;;;5070677;28;19909;-75
2023/12/16 08:46:04;;;;;;;;;;;15.30;81.70;;;;;;5070804;28;19915;-74
2023/12/16 08:48:30;;;;;;;;;;;15.30;80.90;;;;;;5070812;28;19987;-76
2023/12/16 08:50:57;;;;;;;;;;;15.20;81.40;;;;;;5070809;28;20385;-81
2023/12/16 08:53:24;;;;;;;;;;;15.30;81.30;;;;;;5070963;28;19956;-78
2023/12/16 08:55:50;;;;;;;;;;;15.30;82.00;;;;;;5071023;28;19916;-73
2023/12/16 08:58:16;;;;;;;;;;;15.20;81.50;;;;;;5070955;28;19913;-74
2023/12/16 09:00:42;;;;;;;;;;;15.20;82.00;;;;;;5070644;28;19916;-74
2023/12/16 09:03:08;;;;;;;;;;;15.20;82.00;;;;;;5071012;28;19970;-73
2023/12/16 09:05:36;;;;;;;;;;;15.20;82.20;;;;;;5070610;28;19932;-72
2023/12/16 09:08:02;;;;;;;;;;;14.90;81.80;;;;;;5070834;28;19915;-73
2023/12/16 09:10:28;;;;;;;;;;;15.20;82.20;;;;;;5070906;28;19908;-72
2023/12/16 09:12:54;;;;;;;;;;;15.20;82.40;;;;;;5070569;28;20488;-73
2023/12/16 09:15:20;;;;;;;;;;;15.20;82.20;;;;;;5070808;28;19909;-73
2023/12/16 09:17:49;;;;;;;;;;;15.30;82.50;;;;;;5074488;28;20407;-74
2023/12/16 09:20:15;;;;;;;;;;;15.80;78.40;;;;;;5074637;28;19908;-72
2023/12/16 09:22:41;;;;;;;;;;;15.30;82.40;;;;;;5074047;28;19927;-72
2023/12/16 09:25:08;;;;;;;;;;;15.30;82.60;;;;;;5074524;28;19909;-72
2023/12/16 09:27:35;;;;;;;;;;;15.20;82.30;;;;;;5074147;28;19915;-72
2023/12/16 09:30:01;;;;;;;;;;;15.30;82.50;;;;;;5074258;28;19912;-74
2023/12/16 09:32:27;;;;;;;;;;;15.20;82.30;;;;;;5075163;28;19991;-79
2023/12/16 09:34:53;;;;;;;;;;;15.20;82.80;;;;;;5074340;28;20407;-76
2023/12/16 09:37:19;;;;;;;;;;;15.20;82.50;;;;;;5077532;28;19913;-78
2023/12/16 09:39:45;;;;;;;;;;;15.30;82.60;;;;;;5074721;28;19958;-77
2023/12/16 09:42:11;;;;;;;;;;;15.30;82.80;;;;;;5074314;28;19916;-76
2023/12/16 09:44:38;;;;;;;;;;;15.30;82.60;;;;;;5074650;28;19909;-79
2023/12/16 09:47:04;;;;;;;;;;;15.20;82.50;;;;;;5074254;28;19909;-75
2023/12/16 09:49:31;;;;;;;;;;;15.30;81.70;;;;;;5074132;28;19963;-75
2023/12/16 09:51:57;;;;;;;;;;;15.30;82.80;;;;;;5074212;28;19908;-76
2023/12/16 09:54:22;;;;;;;;;;;15.30;82.80;;;;;;5073901;28;20278;-76
2023/12/16 09:56:49;;;;;;;;;;;15.30;82.60;;;;;;5074044;28;19912;-76
2023/12/16 09:59:20;;;;;;;;;;;15.30;82.20;;;;;;5074586;28;19915;-76
2023/12/16 10:02:02;;;;;;;;;;;15.20;82.10;;;;;;5073755;28;19966;-82
2023/12/16 10:04:28;;;;;;;;;;;15.30;77.50;;;;;;5073910;28;20312;-77
2023/12/16 10:06:54;;;;;;;;;;;15.50;83.10;;;;;;5073821;28;19951;-76
2023/12/16 10:09:20;;;;;;;;;;;15.30;82.80;;;;;;5073866;28;19909;-77
2023/12/16 10:11:49;;;;;;;;;;;15.30;82.80;;;;;;5073392;28;20300;-74
2023/12/16 10:14:15;;;;;;;;;;;15.20;77.30;;;;;;5073621;28;19908;-73
2023/12/16 10:16:46;;;;;;;;;;;15.20;82.80;;;;;;5055709;28;19909;-74
2023/12/16 10:19:12;;;;;;;;;;;15.40;83.20;;;;;;5073718;28;19961;-73
2023/12/16 10:21:40;;;;;;;;;;;15.30;82.80;;;;;;5073019;28;19947;-74
2023/12/16 10:24:06;;;;;;;;;;;15.60;83.00;;;;;;5073649;28;19912;-73
2023/12/16 10:26:33;;;;;;;;;;;15.30;82.60;;;;;;5073568;28;19975;-74
2023/12/16 10:29:00;;;;;;;;;;;15.20;82.80;;;;;;5072833;28;20353;-74
2023/12/16 10:31:26;;;;;;;;;;;15.40;83.00;;;;;;5073425;28;19954;-74
2023/12/16 10:33:52;;;;;;;;;;;15.10;82.10;;;;;;5073327;28;19909;-74
2023/12/16 10:36:19;;;;;;;;;;;15.30;82.40;;;;;;5073012;28;20414;-74
2023/12/16 10:38:46;;;;;;;;;;;15.30;82.20;;;;;;5073204;28;19936;-76
2023/12/16 10:41:12;;;;;;;;;;;15.30;83.20;;;;;;5072966;28;20446;-74
2023/12/16 10:43:38;;;;;;;;;;;15.30;82.70;;;;;;5072752;28;20389;-73
2023/12/16 10:46:05;;;;;;;;;;;15.30;82.80;;;;;;5073046;28;19916;-73
2023/12/16 10:48:34;;;;;;;;;;;15.30;83.20;;;;;;5072940;28;19950;-73
2023/12/16 10:51:02;;;;;;;;;;;15.30;77.70;;;;;;5072904;28;19909;-73
2023/12/16 10:53:39;;;;;;;;;;;15.30;83.30;;;;;;5072707;28;19995;-73
2023/12/16 10:56:10;;;;;;;;;;;15.20;82.80;;;;;;5073147;28;19916;-73
2023/12/16 10:58:40;;;;;;;;;;;15.30;82.20;;;;;;5072690;28;19958;-73
2023/12/16 11:01:09;;;;;;;;;;;15.30;82.70;;;;;;5072722;28;19917;-73
2023/12/16 11:03:37;;;;;;;;;;;15.30;82.90;;;;;;5072456;28;19908;-73
2023/12/16 11:06:07;;;;;;;;;;;16.70;83.80;;;;;;5072630;28;19915;-73
2023/12/16 11:08:33;;;;;;;;;;;15.40;82.30;;;;;;5072694;28;19908;-73
2023/12/16 11:10:59;;;;;;;;;;;15.30;83.30;;;;;;5072478;28;19919;-73
2023/12/16 11:13:25;;;;;;;;;;;15.30;83.00;;;;;;5072627;28;19908;-73
2023/12/16 11:16:03;;;;;;;;;;;15.70;83.20;;;;;;5072844;28;19932;-73
2023/12/16 11:18:30;;;;;;;;;;;15.30;83.40;;;;;;5072774;28;19935;-73
2023/12/16 11:21:01;;;;;;;;;;;15.40;83.40;;;;;;5072639;28;19962;-73
2023/12/16 11:23:29;;;;;;;;;;;15.30;83.40;;;;;;5072205;28;19927;-73
2023/12/16 11:25:55;;;;;;;;;;;15.30;83.60;;;;;;5072832;28;19966;-73
2023/12/16 11:28:21;;;;;;;;;;;15.40;83.20;;;;;;5072553;28;19909;-73
2023/12/16 11:30:47;;;;;;;;;;;15.30;83.40;;;;;;5072161;28;20392;-74
2023/12/16 11:33:13;;;;;;;;;;;15.30;82.90;;;;;;5072011;28;19939;-74
2023/12/16 11:35:46;;;;;;;;;;;15.60;83.50;;;;;;5072321;28;19913;-74
2023/12/16 11:38:30;;;;;;;;;;;15.40;78.30;;;;;;5072496;28;19908;-79
2023/12/16 11:40:58;;;;;;;;;;;15.30;83.20;;;;;;5071957;28;19923;-73
2023/12/16 11:43:44;;;;;;;;;;;15.30;83.00;;;;;;5072218;28;19915;-75
2023/12/16 11:46:30;;;;;;;;;;;15.40;83.70;;;;;;5071775;28;20323;-73
2023/12/16 11:48:56;;;;;;;;;;;15.50;83.60;;;;;;5071794;28;20350;-73
2023/12/16 11:51:22;;;;;;;;;;;15.30;83.00;;;;;;5071932;28;20376;-75
2023/12/16 11:53:50;;;;;;;;;;;15.30;83.50;;;;;;5072581;28;19919;-74
2023/12/16 11:56:16;;;;;;;;;;;15.40;83.60;;;;;;5071801;28;19909;-74
2023/12/16 11:58:42;;;;;;;;;;;15.30;83.40;;;;;;5071615;28;19908;-73
2023/12/16 12:01:08;;;;;;;;;;;15.30;83.50;;;;;;5071872;28;19916;-75
2023/12/16 12:03:34;;;;;;;;;;;15.30;83.00;;;;;;5071861;28;19909;-74
2023/12/16 12:06:00;;;;;;;;;;;15.30;83.40;;;;;;5071977;28;20312;-77
2023/12/16 12:08:26;;;;;;;;;;;15.30;82.80;;;;;;5071757;28;20360;-76
2023/12/16 12:10:51;;;;;;;;;;;15.40;83.60;;;;;;5071536;28;19970;-77
2023/12/16 12:13:17;;;;;;;;;;;15.30;83.70;;;;;;5071447;28;20047;-78
2023/12/16 12:15:44;;;;;;;;;;;15.30;83.20;;;;;;5071736;28;19909;-77
2023/12/16 12:18:10;;;;;;;;;;;15.40;83.70;;;;;;5071799;28;20358;-75
2023/12/16 12:20:36;;;;;;;;;;;15.40;83.70;;;;;;5071692;28;19940;-76
2023/12/16 12:23:02;;;;;;;;;;;15.40;83.60;;;;;;5071864;28;19920;-71
2023/12/16 12:25:28;;;;;;;;;;;15.30;83.40;;;;;;5071318;28;19908;-72
2023/12/16 12:27:54;;;;;;;;;;;15.30;83.60;;;;;;5071573;28;19908;-70
2023/12/16 12:30:20;;;;;;;;;;;15.40;83.70;;;;;;5071565;28;19909;-71
2023/12/16 12:32:46;;;;;;;;;;;15.30;83.40;;;;;;5071595;28;19909;-71
2023/12/16 12:35:12;;;;;;;;;;;15.40;83.40;;;;;;5071607;28;19915;-72
2023/12/16 12:37:38;;;;;;;;;;;15.40;83.70;;;;;;5071229;28;19908;-74
2023/12/16 12:40:10;;;;;;;;;;;15.30;83.80;;;;;;5071468;28;20398;-74
2023/12/16 12:42:50;;;;;;;;;;;15.40;78.40;;;;;;5071379;28;20312;-74
2023/12/16 12:45:34;;;;;;;;;;;15.50;78.60;;;;;;5069650;28;20090;-75
2023/12/16 12:48:10;;;;;;;;;;;15.40;83.90;;;;;;5071507;28;20343;-75
2023/12/16 12:50:36;;;;;;;;;;;15.40;78.60;;;;;;5072051;28;19909;-73
2023/12/16 12:53:13;;;;;;;;;;;15.40;83.80;;;;;;5075643;28;19908;-72
2023/12/16 12:55:43;;;;;;;;;;;15.40;84.00;;;;;;5075447;28;19912;-72
2023/12/16 12:58:09;;;;;;;;;;;15.40;83.10;;;;;;5075565;28;19912;-71
2023/12/16 13:00:35;;;;;;;;;;;15.30;83.60;;;;;;5075025;28;19913;-71
2023/12/16 13:03:01;;;;;;;;;;;15.40;83.60;;;;;;5075166;28;19908;-76
2023/12/16 13:05:27;;;;;;;;;;;15.30;83.80;;;;;;5075189;28;19991;-76
2023/12/16 13:07:53;;;;;;;;;;;15.00;83.50;;;;;;5074976;28;19999;-76
2023/12/16 13:10:19;;;;;;;;;;;15.30;83.60;;;;;;5075261;28;19923;-76
2023/12/16 13:12:45;;;;;;;;;;;15.40;83.90;;;;;;5075107;28;19908;-76
2023/12/16 13:15:11;;;;;;;;;;;15.30;84.00;;;;;;5075126;28;20312;-76
2023/12/16 13:17:37;;;;;;;;;;;15.30;83.40;;;;;;5075032;28;19909;-77
2023/12/16 13:20:03;;;;;;;;;;;15.30;83.90;;;;;;5075628;28;20082;-76
2023/12/16 13:22:34;;;;;;;;;;;15.30;82.70;;;;;;5074401;28;19930;-76
2023/12/16 13:25:00;;;;;;;;;;;15.40;84.20;;;;;;5075001;28;20304;-76
2023/12/16 13:27:26;;;;;;;;;;;15.40;84.00;;;;;;5074530;28;19915;-76
2023/12/16 13:29:53;;;;;;;;;;;15.30;84.50;;;;;;5075241;28;19915;-71
2023/12/16 13:32:19;;;;;;;;;;;15.30;83.70;;;;;;5074994;28;19913;-77
2023/12/16 13:34:45;;;;;;;;;;;15.40;84.20;;;;;;5074792;28;19908;-77
2023/12/16 13:37:11;;;;;;;;;;;15.30;84.00;;;;;;5056977;28;20277;-76
2023/12/16 13:39:37;;;;;;;;;;;15.40;84.20;;;;;;5074670;28;20075;-76
2023/12/16 13:42:03;;;;;;;;;;;15.40;84.20;;;;;;5074548;28;20360;-76
2023/12/16 13:44:29;;;;;;;;;;;15.50;83.10;;;;;;5074741;28;19916;-76
2023/12/16 13:46:55;;;;;;;;;;;15.30;84.10;;;;;;5075027;28;19981;-76
2023/12/16 13:49:21;;;;;;;;;;;15.30;84.20;;;;;;5074289;28;19931;-76
2023/12/16 13:51:47;;;;;;;;;;;15.40;84.10;;;;;;5074427;28;19962;-76
2023/12/16 13:54:13;;;;;;;;;;;15.40;84.10;;;;;;5073990;28;20415;-76
2023/12/16 13:56:39;;;;;;;;;;;15.30;84.30;;;;;;5074470;28;19912;-75
2023/12/16 13:59:05;;;;;;;;;;;15.40;84.30;;;;;;5074134;28;20003;-80
2023/12/16 14:01:30;;;;;;;;;;;15.30;83.60;;;;;;5073971;28;20005;-82
2023/12/16 14:03:56;;;;;;;;;;;15.40;84.10;;;;;;5073191;28;20002;-80
2023/12/16 14:06:22;;;;;;;;;;;15.30;84.20;;;;;;5074204;28;19940;-76
2023/12/16 14:08:48;;;;;;;;;;;15.40;84.40;;;;;;5073701;28;19983;-75
2023/12/16 14:11:14;;;;;;;;;;;15.30;84.10;;;;;;5073805;28;20003;-76
2023/12/16 14:13:41;;;;;;;;;;;15.30;84.00;;;;;;5074089;28;19908;-77
2023/12/16 14:16:07;;;;;;;;;;;15.40;84.20;;;;;;5074565;28;19913;-78
2023/12/16 14:18:33;;;;;;;;;;;15.30;82.40;;;;;;5055748;28;19908;-75
2023/12/16 14:20:59;;;;;;;;;;;15.30;83.70;;;;;;5073444;28;19928;-77
2023/12/16 14:23:25;;;;;;;;;;;15.30;84.10;;;;;;5073319;28;19956;-79
2023/12/16 14:25:51;;;;;;;;;;;15.40;84.40;;;;;;5073460;28;19947;-79
2023/12/16 14:28:16;;;;;;;;;;;15.30;84.30;;;;;;5073602;28;20003;-75
2023/12/16 14:30:42;;;;;;;;;;;15.40;84.40;;;;;;5073775;28;19908;-74